KSAC/SAC METAR and TAF weather

Enter ICAO airport designator
Station Type Date Time Source
KSAC METAR 2021/05/14 06:53 UTC NOAA

KSAC 140653Z AUTO 19005KT 10SM CLR 13/09 A2991 RMK AO2 SLP128 T01280094


Station Type Date Time Source
KSAC Decoded METAR 2021/05/14 06:53 UTC NOAA

SACRAMENTO EXECUTIVE AIRPORT , CA, United States (KSAC) 38-30N 121-30W 11M
May 14, 2021 - 02:53 AM EDT / 2021.05.14 0653 UTC
Wind: from the S (190 degrees) at 6 MPH (5 KT):0
Visibility: 10 mile(s):0
Sky conditions: clear
Temperature: 55.0 F (12.8 C)
Dew Point: 48.9 F (9.4 C)
Relative Humidity: 79%
Pressure (altimeter): 29.91 in. Hg (1012 hPa)
ob: KSAC 140653Z AUTO 19005KT 10SM CLR 13/09 A2991 RMK AO2 SLP128 T01280094
cycle: 7

Station Type Date Time Source
KSAC TAF 2021/05/14 06:33 UTC NOAA

TAF KSAC 140529Z 1406/1506 19010KT P6SM SKC
FM150000 21014G22KT P6SM SCT250

Example: see airport list